VOBZ/VGA METAR and TAF weather

Enter ICAO airport designator
Station Type Date Time Source
VOBZ METAR 2021/06/23 00:00 UTC NOAA

VOBZ 230000Z 23005KT 4500 HZ SCT020 BKN100 29/26 Q1003 NOSIG


Station Type Date Time Source
VOBZ Decoded METAR 2021/06/23 00:00 UTC NOAA

Vijayawada / Gannavaram, India (VOBZ) 16-32N 080-48E 24M
Jun 22, 2021 - 08:00 PM EDT / 2021.06.23 0000 UTC
Wind: from the SW (230 degrees) at 6 MPH (5 KT):0
Visibility: 2 mile(s):0
Sky conditions: mostly cloudy
Weather: haze
Temperature: 84 F (29 C)
Dew Point: 78 F (26 C)
Relative Humidity: 83%
Pressure (altimeter): 29.62 in. Hg (1003 hPa)
ob: VOBZ 230000Z 23005KT 4500 HZ SCT020 BKN100 29/26 Q1003 NOSIG
cycle: 0

Station Type Date Time Source
VOBZ TAF 2021/06/22 12:00 UTC NOAA

TAF VOBZ 221100Z 2212/2318 30010KT 6000 SCT015 SCT100
TEMPO 2212/2218 3000 RA DZ SCT010 SCT015 OVC080
BECMG 2216/2218 5000 BR HZ SCT015 SCT100
TEMPO 2300/2303 27008KT 3000 RA DZ BR SCT010 SCT015 OVC080
BECMG 2304/2306 23012KT 6000 SCT010 SCT015 SCT025
TEMPO 2309/2316 3000 RA DZ SCT010 SCT015 OVC080

Example: see airport list